createdAt,value
2022-08-27T00:01:15.493Z,91
2022-08-27T00:03:15.526Z,95
2022-08-27T00:05:15.497Z,99
2022-08-27T00:08:15.509Z,109
2022-08-27T00:11:15.505Z,98
2022-08-27T00:14:15.511Z,99
2022-08-27T00:16:15.554Z,100
2022-08-27T00:19:15.456Z,98
2022-08-27T00:21:15.477Z,97
2022-08-27T00:23:15.483Z,105
2022-08-27T00:27:20.516Z,105
2022-08-27T00:29:15.502Z,102
2022-08-27T00:32:15.570Z,87
2022-08-27T00:35:15.471Z,95
2022-08-27T00:37:15.491Z,101
2022-08-27T00:40:15.520Z,92
2022-08-27T00:42:15.494Z,97
2022-08-27T00:44:15.500Z,102
2022-08-27T00:46:15.565Z,93
2022-08-27T00:48:15.503Z,97
2022-08-27T00:50:15.497Z,99
2022-08-27T00:53:15.524Z,100
2022-08-27T00:56:15.487Z,100
2022-08-27T00:58:15.503Z,99
2022-08-27T01:00:15.560Z,99
2022-08-27T01:06:16.202Z,101
2022-08-27T01:08:15.522Z,96
2022-08-27T01:11:15.716Z,95
2022-08-27T01:14:15.524Z,99
2022-08-27T01:16:15.575Z,101
2022-08-27T01:19:15.489Z,93
2022-08-27T01:21:15.598Z,102
2022-08-27T01:24:15.517Z,99
2022-08-27T01:26:15.525Z,97
2022-08-27T01:29:47.711Z,99
2022-08-27T01:32:15.523Z,91
2022-08-27T01:34:15.521Z,87
2022-08-27T01:37:15.526Z,91
2022-08-27T01:40:16.293Z,98
2022-08-27T01:43:15.528Z,101
2022-08-27T01:45:15.754Z,100
2022-08-27T01:48:15.536Z,76
2022-08-27T01:51:15.559Z,85
2022-08-27T01:54:15.530Z,93
2022-08-27T01:56:15.561Z,97
2022-08-27T01:59:15.513Z,96
2022-08-27T02:01:15.580Z,87
2022-08-27T02:03:15.530Z,90
2022-08-27T02:05:15.522Z,87
2022-08-27T02:07:15.558Z,90
2022-08-27T02:10:15.534Z,97
2022-08-27T02:13:15.513Z,98
2022-08-27T02:15:15.542Z,95
2022-08-27T02:17:15.597Z,94
2022-08-27T02:20:15.512Z,93
2022-08-27T02:22:15.533Z,92
2022-08-27T02:24:15.567Z,90
2022-08-27T02:27:15.563Z,85
2022-08-27T02:29:15.557Z,92
2022-08-27T02:32:17.531Z,90
2022-08-27T02:34:15.564Z,80
2022-08-27T02:37:15.549Z,87
2022-08-27T02:39:15.571Z,94
2022-08-27T02:42:15.546Z,92
2022-08-27T02:45:15.514Z,90
2022-08-27T02:48:15.553Z,96
2022-08-27T02:50:15.555Z,91
2022-08-27T02:53:15.520Z,77
2022-08-27T02:56:15.520Z,61
2022-08-27T02:58:15.575Z,76
2022-08-27T03:01:15.566Z,88
2022-08-27T03:04:15.548Z,88
2022-08-27T03:07:18.876Z,90
2022-08-27T03:09:15.581Z,86
2022-08-27T03:12:15.557Z,96
2022-08-27T03:14:15.669Z,93
2022-08-27T03:17:15.547Z,85
2022-08-27T03:19:18.646Z,77
2022-08-27T03:22:15.525Z,90
2022-08-27T03:24:15.583Z,92
2022-08-27T03:27:15.583Z,91
2022-08-27T03:30:15.561Z,90
2022-08-27T03:32:15.538Z,85
2022-08-27T03:34:19.643Z,88
2022-08-27T03:36:15.613Z,88
2022-08-27T03:39:15.592Z,84
2022-08-27T03:42:15.575Z,83
2022-08-27T03:44:21.226Z,91
2022-08-27T03:46:15.635Z,96
2022-08-27T03:49:15.545Z,86
2022-08-27T03:51:15.575Z,91
2022-08-27T03:54:15.525Z,89
2022-08-27T03:56:15.568Z,95
2022-08-27T03:59:15.585Z,98
2022-08-27T04:02:15.566Z,84
2022-08-27T04:04:15.578Z,87
2022-08-27T04:06:15.593Z,83
2022-08-27T04:09:15.617Z,85
2022-08-27T04:11:15.571Z,84
2022-08-27T04:13:15.571Z,79
2022-08-27T04:16:15.644Z,85
2022-08-27T04:18:15.587Z,85
2022-08-27T04:20:34.405Z,82
2022-08-27T04:23:15.594Z,77
2022-08-27T04:26:15.646Z,77
2022-08-27T04:29:15.540Z,86
2022-08-27T04:31:16.506Z,83
2022-08-27T04:34:15.579Z,89
2022-08-27T04:36:15.597Z,88
2022-08-27T04:38:15.620Z,80
2022-08-27T04:41:15.550Z,87
2022-08-27T04:43:16.608Z,90
2022-08-27T04:46:15.634Z,87
2022-08-27T04:49:15.583Z,86
2022-08-27T04:51:15.587Z,91
2022-08-27T04:54:15.596Z,97
2022-08-27T04:56:15.568Z,98
2022-08-27T04:59:15.598Z,92
2022-08-27T05:02:15.551Z,85
2022-08-27T05:04:15.631Z,88
2022-08-27T05:07:15.570Z,90
2022-08-27T05:09:15.642Z,81
2022-08-27T05:12:15.591Z,86
2022-08-27T05:15:15.623Z,84
2022-08-27T05:17:15.585Z,85
2022-08-27T05:20:15.589Z,90
2022-08-27T05:22:15.579Z,88
2022-08-27T05:25:15.587Z,85
2022-08-27T05:28:15.582Z,85
2022-08-27T05:31:15.651Z,87
2022-08-27T05:34:16.567Z,93
2022-08-27T05:36:15.621Z,90
2022-08-27T05:39:15.595Z,90
2022-08-27T05:42:15.582Z,87
2022-08-27T05:45:15.595Z,89
2022-08-27T05:47:15.614Z,93
2022-08-27T05:50:15.569Z,83
2022-08-27T05:52:15.594Z,94
2022-08-27T05:55:15.933Z,98
2022-08-27T05:58:15.651Z,84
2022-08-27T06:01:47.718Z,89
2022-08-27T06:04:17.624Z,74
2022-08-27T06:06:15.613Z,82
2022-08-27T06:09:15.597Z,87
2022-08-27T06:11:15.615Z,90
2022-08-27T06:14:15.619Z,83
2022-08-27T06:16:15.708Z,87
2022-08-27T06:19:15.617Z,95
2022-08-27T06:21:15.635Z,92
2022-08-27T06:24:15.635Z,85
2022-08-27T06:27:15.615Z,82
2022-08-27T06:29:16.302Z,80
2022-08-27T06:32:15.641Z,86
2022-08-27T06:35:15.604Z,79
2022-08-27T06:37:15.627Z,85
2022-08-27T06:39:15.630Z,70
2022-08-27T06:41:16.208Z,72
2022-08-27T06:45:15.626Z,75
2022-08-27T06:47:15.635Z,78
2022-08-27T06:50:19.443Z,79
2022-08-27T06:52:15.686Z,81
2022-08-27T06:55:15.634Z,75
2022-08-27T06:57:15.638Z,81
2022-08-27T06:59:15.641Z,77
2022-08-27T07:01:15.663Z,76
2022-08-27T07:04:15.640Z,92
2022-08-27T07:07:15.620Z,92
2022-08-27T07:09:15.645Z,91
2022-08-27T07:12:15.651Z,99
2022-08-27T07:14:15.649Z,95
2022-08-27T07:16:15.699Z,98
2022-08-27T07:19:15.631Z,86
2022-08-27T07:22:15.629Z,91
2022-08-27T07:24:15.671Z,90
2022-08-27T07:27:15.688Z,82
2022-08-27T07:30:15.615Z,86
2022-08-27T07:32:15.649Z,83
2022-08-27T07:35:15.651Z,85
2022-08-27T07:38:15.620Z,92
2022-08-27T07:40:15.677Z,89
2022-08-27T07:43:15.640Z,87
2022-08-27T07:45:15.658Z,84
2022-08-27T07:48:15.637Z,83
2022-08-27T07:50:15.628Z,90
2022-08-27T07:52:15.641Z,90
2022-08-27T07:55:15.624Z,84
2022-08-27T07:57:15.662Z,82
2022-08-27T08:00:15.705Z,77
2022-08-27T08:03:15.655Z,98
2022-08-27T08:06:15.638Z,89
2022-08-27T08:08:15.679Z,86
2022-08-27T08:11:15.640Z,88
2022-08-27T08:13:15.668Z,84
2022-08-27T08:16:15.667Z,89
2022-08-27T08:19:15.647Z,88
2022-08-27T08:21:15.661Z,88
2022-08-27T08:24:15.626Z,87
2022-08-27T08:28:15.659Z,93
2022-08-27T08:31:15.727Z,87
2022-08-27T08:34:15.642Z,93
2022-08-27T08:37:15.666Z,96
2022-08-27T08:39:15.667Z,85
2022-08-27T08:41:15.656Z,91
2022-08-27T08:43:15.667Z,95
2022-08-27T08:46:15.732Z,92
2022-08-27T08:49:15.673Z,94
2022-08-27T08:52:17.046Z,99
2022-08-27T08:54:15.662Z,96
2022-08-27T08:56:15.624Z,94
2022-08-27T08:58:15.686Z,88
2022-08-27T09:01:15.803Z,85
2022-08-27T09:03:15.668Z,98
2022-08-27T09:06:15.683Z,89
2022-08-27T09:08:32.300Z,97
2022-08-27T09:11:15.683Z,91
2022-08-27T09:13:15.674Z,86
2022-08-27T09:16:15.726Z,85
2022-08-27T09:18:15.692Z,75
2022-08-27T09:20:15.714Z,85
2022-08-27T09:23:15.678Z,83
2022-08-27T09:25:19.052Z,72
2022-08-27T09:27:15.656Z,76
2022-08-27T09:29:15.702Z,83
2022-08-27T09:32:15.699Z,78
2022-08-27T09:35:15.732Z,79
2022-08-27T09:38:15.674Z,86
2022-08-27T09:41:15.677Z,79
2022-08-27T09:43:15.674Z,77
2022-08-27T09:46:16.140Z,77
2022-08-27T09:49:15.650Z,79
2022-08-27T09:51:15.679Z,81
2022-08-27T09:53:15.735Z,73
2022-08-27T09:56:15.726Z,77
2022-08-27T09:59:15.707Z,76
2022-08-27T10:02:15.690Z,74
2022-08-27T10:04:16.209Z,68
2022-08-27T10:07:15.690Z,69
2022-08-27T10:10:16.089Z,70
2022-08-27T10:13:15.739Z,65
2022-08-27T10:16:15.810Z,63
2022-08-27T10:18:15.793Z,69
2022-08-27T10:20:16.450Z,68
2022-08-27T10:23:15.960Z,64
2022-08-27T10:26:15.689Z,62
2022-08-27T10:28:15.817Z,69
2022-08-27T10:31:15.726Z,70
2022-08-27T10:33:17.448Z,64
2022-08-27T10:35:15.724Z,65
2022-08-27T10:38:15.703Z,59
2022-08-27T10:40:15.768Z,62
2022-08-27T10:43:15.721Z,65
2022-08-27T10:46:15.714Z,63
2022-08-27T10:48:15.729Z,56
2022-08-27T10:51:15.705Z,55
2022-08-27T10:54:15.730Z,64
2022-08-27T10:56:15.747Z,58
2022-08-27T10:59:15.710Z,53
2022-08-27T11:02:15.727Z,65
2022-08-27T11:04:15.726Z,63
2022-08-27T11:06:47.873Z,50
2022-08-27T11:09:15.707Z,62
2022-08-27T11:11:57.403Z,56
2022-08-27T11:14:15.724Z,60
2022-08-27T11:16:15.757Z,56
2022-08-27T11:19:15.711Z,58
2022-08-27T11:21:15.709Z,62
2022-08-27T11:24:15.724Z,66
2022-08-27T11:26:15.715Z,64
2022-08-27T11:29:15.717Z,64
2022-08-27T11:31:15.771Z,65
2022-08-27T11:34:15.754Z,58
2022-08-27T11:37:15.699Z,60
2022-08-27T11:39:15.729Z,64
2022-08-27T11:41:15.732Z,58
2022-08-27T11:44:15.739Z,60
2022-08-27T11:47:15.704Z,54
2022-08-27T11:49:15.764Z,57
2022-08-27T11:52:15.714Z,55
2022-08-27T11:55:15.720Z,67
2022-08-27T11:57:15.727Z,70
2022-08-27T12:00:15.773Z,70
2022-08-27T12:03:31.469Z,57
2022-08-27T12:05:15.903Z,63
2022-08-27T12:08:15.710Z,62
2022-08-27T12:10:15.722Z,60
2022-08-27T12:13:15.733Z,62
2022-08-27T12:16:15.841Z,66
2022-08-27T12:19:15.704Z,63
2022-08-27T12:21:15.768Z,60
2022-08-27T12:24:15.704Z,69
2022-08-27T12:26:15.732Z,56
2022-08-27T12:28:15.710Z,65
2022-08-27T12:30:15.755Z,61
2022-08-27T12:33:15.736Z,61
2022-08-27T12:36:15.743Z,54
2022-08-27T12:38:15.976Z,54
2022-08-27T12:41:19.162Z,54
2022-08-27T12:44:15.729Z,58
2022-08-27T12:47:15.750Z,57
2022-08-27T12:50:15.726Z,52
2022-08-27T12:53:15.768Z,54
2022-08-27T12:55:15.761Z,50
2022-08-27T12:58:16.005Z,56
2022-08-27T13:00:15.768Z,53
2022-08-27T13:03:15.755Z,57
2022-08-27T13:06:15.734Z,54
2022-08-27T13:08:15.771Z,64
2022-08-27T13:10:15.775Z,59
2022-08-27T13:13:15.773Z,57
2022-08-27T13:15:15.860Z,58
2022-08-27T13:17:16.265Z,53
2022-08-27T13:20:15.788Z,59
2022-08-27T13:23:19.796Z,49
2022-08-27T13:25:15.790Z,51
2022-08-27T13:27:15.794Z,47
2022-08-27T13:29:15.795Z,44
2022-08-27T13:32:15.724Z,52
2022-08-27T13:34:15.901Z,53
2022-08-27T13:37:15.789Z,48
2022-08-27T13:39:15.800Z,46
2022-08-27T13:42:15.771Z,50
2022-08-27T13:45:15.771Z,50
2022-08-27T13:47:15.765Z,46
2022-08-27T13:50:15.782Z,47
2022-08-27T13:53:16.058Z,51
2022-08-27T13:56:15.769Z,46
2022-08-27T13:59:15.803Z,44
2022-08-27T14:02:15.963Z,47
2022-08-27T14:05:15.785Z,49
2022-08-27T14:08:15.765Z,44
2022-08-27T14:11:15.768Z,41
2022-08-27T14:13:15.786Z,44
2022-08-27T14:15:15.793Z,42
2022-08-27T14:17:15.791Z,42
2022-08-27T14:19:15.827Z,44
2022-08-27T14:22:15.814Z,40
2022-08-27T14:25:15.786Z,42
2022-08-27T14:28:15.764Z,45
2022-08-27T14:30:15.870Z,41
2022-08-27T14:33:15.770Z,46
2022-08-27T14:36:15.789Z,41
2022-08-27T14:38:15.796Z,43
2022-08-27T14:40:15.853Z,44
2022-08-27T14:43:15.774Z,37
2022-08-27T14:45:15.809Z,45
2022-08-27T14:48:18.321Z,46
2022-08-27T14:51:48.038Z,44
2022-08-27T14:53:15.831Z,45
2022-08-27T14:56:15.790Z,42
2022-08-27T14:59:15.779Z,34
2022-08-27T15:01:15.859Z,40
2022-08-27T15:04:15.823Z,36
2022-08-27T15:07:15.780Z,38
2022-08-27T15:09:15.821Z,35
2022-08-27T15:12:25.654Z,41
2022-08-27T15:14:15.867Z,36
2022-08-27T15:17:33.342Z,37
2022-08-27T15:21:15.808Z,37
2022-08-27T15:23:15.799Z,43
2022-08-27T15:25:15.799Z,43
2022-08-27T15:28:15.812Z,38
2022-08-27T15:30:15.845Z,38
2022-08-27T15:32:15.822Z,35
2022-08-27T15:34:15.819Z,38
2022-08-27T15:36:15.832Z,40
2022-08-27T15:39:15.780Z,42
2022-08-27T15:41:15.804Z,37
2022-08-27T15:44:15.823Z,38
2022-08-27T15:46:15.878Z,41
2022-08-27T15:49:15.818Z,33
2022-08-27T15:52:16.121Z,39
2022-08-27T15:55:15.824Z,35
2022-08-27T15:58:15.817Z,35
2022-08-27T16:00:15.851Z,34
2022-08-27T16:02:15.872Z,37
2022-08-27T16:05:15.809Z,34
2022-08-27T16:07:15.790Z,36
2022-08-27T16:09:15.821Z,34
2022-08-27T16:11:15.842Z,35
2022-08-27T16:13:15.863Z,36
2022-08-27T16:16:15.893Z,36
2022-08-27T16:19:16.538Z,32
2022-08-27T16:22:15.841Z,35
2022-08-27T16:24:15.850Z,36
2022-08-27T16:26:15.864Z,34
2022-08-27T16:29:31.711Z,37
2022-08-27T16:32:15.867Z,34
2022-08-27T16:35:15.860Z,35
2022-08-27T16:37:15.889Z,37
2022-08-27T16:39:15.836Z,39
2022-08-27T16:42:15.856Z,36
2022-08-27T16:44:15.860Z,42
2022-08-27T16:47:15.854Z,40
2022-08-27T16:49:15.856Z,45
2022-08-27T16:52:15.852Z,41
2022-08-27T16:55:15.819Z,43
2022-08-27T16:58:15.834Z,43
2022-08-27T17:00:15.852Z,45
2022-08-27T17:02:15.901Z,48
2022-08-27T17:04:23.854Z,44
2022-08-27T17:07:15.842Z,47
2022-08-27T17:09:15.849Z,48
2022-08-27T17:12:15.832Z,49
2022-08-27T17:14:15.915Z,54
2022-08-27T17:17:15.851Z,48
2022-08-27T17:19:16.946Z,47
2022-08-27T17:21:15.841Z,51
2022-08-27T17:24:15.853Z,48
2022-08-27T17:27:15.839Z,49
2022-08-27T17:29:15.862Z,53
2022-08-27T17:32:15.840Z,52
2022-08-27T17:35:15.849Z,51
2022-08-27T17:37:15.883Z,48
2022-08-27T17:40:15.912Z,52
2022-08-27T17:43:15.855Z,50
2022-08-27T17:46:15.950Z,50
2022-08-27T17:49:15.856Z,54
2022-08-27T17:51:15.845Z,50
2022-08-27T17:53:15.855Z,52
2022-08-27T17:56:15.881Z,50
2022-08-27T17:58:15.869Z,51
2022-08-27T18:00:15.933Z,45
2022-08-27T18:02:15.873Z,50
2022-08-27T18:05:15.929Z,52
2022-08-27T18:08:15.871Z,44
2022-08-27T18:11:15.858Z,54
2022-08-27T18:13:15.892Z,48
2022-08-27T18:16:15.895Z,48
2022-08-27T18:18:15.885Z,54
2022-08-27T18:21:25.000Z,57
2022-08-27T18:24:15.911Z,59
2022-08-27T18:27:15.884Z,56
2022-08-27T18:29:15.899Z,51
2022-08-27T18:32:15.874Z,56
2022-08-27T18:34:20.175Z,58
2022-08-27T18:36:15.911Z,59
2022-08-27T18:39:15.877Z,60
2022-08-27T18:41:15.884Z,55
2022-08-27T18:44:17.446Z,53
2022-08-27T18:47:15.879Z,51
2022-08-27T18:50:17.370Z,51
2022-08-27T18:52:15.895Z,49
2022-08-27T18:55:15.901Z,47
2022-08-27T18:59:17.634Z,45
2022-08-27T19:02:17.824Z,43
2022-08-27T19:04:17.598Z,40
2022-08-27T19:07:17.612Z,47
2022-08-27T19:09:17.646Z,42
2022-08-27T19:11:17.636Z,45
2022-08-27T19:13:17.630Z,44
2022-08-27T19:16:17.743Z,47
2022-08-27T19:19:17.655Z,44
2022-08-27T19:21:17.654Z,44
2022-08-27T19:23:18.739Z,45
2022-08-27T19:26:17.640Z,44
2022-08-27T19:29:17.648Z,38
2022-08-27T19:33:17.967Z,39
2022-08-27T19:36:17.653Z,38
2022-08-27T19:38:17.670Z,44
2022-08-27T19:41:17.653Z,40
2022-08-27T19:43:17.689Z,40
2022-08-27T19:46:17.700Z,38
2022-08-27T19:49:17.642Z,37
2022-08-27T19:51:17.652Z,32
2022-08-27T19:54:17.667Z,33
2022-08-27T19:56:17.687Z,35
2022-08-27T19:59:21.668Z,36
2022-08-27T20:02:17.614Z,34
2022-08-27T20:05:07.612Z,38
2022-08-27T20:07:49.959Z,36
2022-08-27T20:09:17.653Z,35
2022-08-27T20:12:17.630Z,38
2022-08-27T20:14:17.691Z,37
2022-08-27T20:16:17.718Z,36
2022-08-27T20:19:17.689Z,35
2022-08-27T20:22:17.654Z,33
2022-08-27T20:25:17.680Z,35
2022-08-27T20:28:38.150Z,36
2022-08-27T20:31:17.649Z,38
2022-08-27T20:33:17.661Z,37
2022-08-27T20:35:17.656Z,35
2022-08-27T20:38:17.679Z,38
2022-08-27T20:41:17.650Z,37
2022-08-27T20:43:17.661Z,35
2022-08-27T20:46:17.689Z,36
2022-08-27T20:48:17.702Z,39
2022-08-27T20:51:17.736Z,29
2022-08-27T20:54:17.680Z,36
2022-08-27T20:56:17.685Z,31
2022-08-27T20:59:17.673Z,32
2022-08-27T21:02:17.683Z,32
2022-08-27T21:05:17.693Z,30
2022-08-27T21:07:17.667Z,28
2022-08-27T21:09:17.682Z,29
2022-08-27T21:12:22.690Z,28
2022-08-27T21:15:17.711Z,28
2022-08-27T21:18:17.680Z,29
2022-08-27T21:20:17.681Z,26
2022-08-27T21:23:17.719Z,25
2022-08-27T21:26:17.677Z,27
2022-08-27T21:28:17.692Z,28
2022-08-27T21:31:17.718Z,24
2022-08-27T21:33:17.685Z,26
2022-08-27T21:37:17.957Z,23
2022-08-27T21:40:17.783Z,25
2022-08-27T21:43:17.659Z,23
2022-08-27T21:45:19.750Z,27
2022-08-27T21:48:17.701Z,25
2022-08-27T21:51:24.290Z,25
2022-08-27T21:54:17.686Z,28
2022-08-27T21:57:17.682Z,26
2022-08-27T21:59:17.736Z,24
2022-08-27T22:02:38.596Z,29
2022-08-27T22:04:17.697Z,26
2022-08-27T22:06:17.677Z,27
2022-08-27T22:09:17.700Z,23
2022-08-27T22:11:24.915Z,22
2022-08-27T22:14:17.691Z,24
2022-08-27T22:16:17.751Z,26
2022-08-27T22:19:17.695Z,23
2022-08-27T22:21:17.725Z,24
2022-08-27T22:23:17.733Z,25
2022-08-27T22:26:17.728Z,22
2022-08-27T22:29:17.721Z,22
2022-08-27T22:32:17.704Z,25
2022-08-27T22:34:17.698Z,27
2022-08-27T22:36:17.739Z,23
2022-08-27T22:39:17.713Z,22
2022-08-27T22:42:18.273Z,24
2022-08-27T22:44:17.726Z,25
2022-08-27T22:46:17.758Z,21
2022-08-27T22:49:17.770Z,19
2022-08-27T22:52:17.746Z,22
2022-08-27T22:55:17.718Z,24
2022-08-27T22:57:17.711Z,21
2022-08-27T23:00:17.688Z,21
2022-08-27T23:02:17.735Z,18
2022-08-27T23:05:17.807Z,23
2022-08-27T23:07:17.723Z,19
2022-08-27T23:10:17.721Z,22
2022-08-27T23:12:17.717Z,21
2022-08-27T23:15:17.734Z,20
2022-08-27T23:18:17.734Z,22
2022-08-27T23:21:17.699Z,23
2022-08-27T23:24:17.706Z,22
2022-08-27T23:27:17.722Z,19
2022-08-27T23:29:17.712Z,23
2022-08-27T23:32:17.700Z,21
2022-08-27T23:34:17.712Z,20
2022-08-27T23:37:17.717Z,28
2022-08-27T23:39:17.727Z,20
2022-08-27T23:42:17.695Z,21
2022-08-27T23:44:17.707Z,20
2022-08-27T23:46:17.754Z,23
2022-08-27T23:48:17.785Z,18
2022-08-27T23:51:17.749Z,18
2022-08-27T23:54:17.734Z,19
2022-08-27T23:56:17.732Z,19
2022-08-27T23:59:17.748Z,20
